QAK4937 MMSD-MMAA
Flight info
| Callsign | QAK4937 |
|---|---|
| Flight time | 1h 46m |
| Altitude | 37000 |
| Route | ILIGA1A ILIGA J1 ZIH DCT AGLON DCT ANVAN ANVAN1B |
| Aircraft | A320/M-SDE3FGHIRWY/LB1 |
Departure
| Time | 2026-04-27 02:38 |
|---|---|
| Airport | Los Cabos International Airport (MMSD) |
Arrival
| Time | 2026-04-27 04:24 |
|---|---|
| Airport | General Juan N. Álvarez International Airport (MMAA) |
| Time | Latitude | Longitude | Altitude | Speed | Heading |
|---|---|---|---|---|---|
| 2026-04-27 02:15 | 23.15820 | -109.71780 | 387 ft | 0 kts | 84° |
| 2026-04-27 02:27 | 23.15819 | -109.71793 | 386 ft | 2 kts | 84° |
| 2026-04-27 02:27 | 23.15817 | -109.71810 | 386 ft | 2 kts | 84° |
| 2026-04-27 02:28 | 23.15816 | -109.71829 | 386 ft | 3 kts | 97° |
| 2026-04-27 02:28 | 23.15820 | -109.71847 | 386 ft | 3 kts | 117° |
| 2026-04-27 02:28 | 23.15831 | -109.71863 | 386 ft | 3 kts | 154° |
| 2026-04-27 02:28 | 23.15838 | -109.71866 | 386 ft | 0 kts | 164° |
| 2026-04-27 02:30 | 23.15820 | -109.71860 | 386 ft | 3 kts | 164° |
| 2026-04-27 02:31 | 23.15802 | -109.71855 | 386 ft | 2 kts | 164° |
| 2026-04-27 02:31 | 23.15784 | -109.71852 | 386 ft | 3 kts | 176° |
| 2026-04-27 02:31 | 23.15752 | -109.71849 | 387 ft | 6 kts | 176° |
| 2026-04-27 02:31 | 23.15718 | -109.71876 | 387 ft | 7 kts | 253° |
| 2026-04-27 02:32 | 23.15695 | -109.71920 | 387 ft | 8 kts | 208° |
| 2026-04-27 02:32 | 23.15635 | -109.71919 | 387 ft | 10 kts | 173° |
| 2026-04-27 02:32 | 23.15556 | -109.71910 | 387 ft | 13 kts | 175° |
| 2026-04-27 02:32 | 23.15461 | -109.71899 | 387 ft | 15 kts | 174° |
| 2026-04-27 02:33 | 23.15351 | -109.71887 | 387 ft | 17 kts | 174° |
| 2026-04-27 02:33 | 23.15232 | -109.71873 | 386 ft | 18 kts | 174° |
| 2026-04-27 02:33 | 23.15106 | -109.71859 | 386 ft | 19 kts | 174° |
| 2026-04-27 02:33 | 23.14986 | -109.71845 | 386 ft | 18 kts | 175° |
| 2026-04-27 02:34 | 23.14861 | -109.71830 | 386 ft | 19 kts | 174° |
| 2026-04-27 02:34 | 23.14728 | -109.71815 | 386 ft | 20 kts | 174° |
| 2026-04-27 02:34 | 23.14598 | -109.71800 | 386 ft | 19 kts | 174° |
| 2026-04-27 02:34 | 23.14467 | -109.71785 | 387 ft | 18 kts | 174° |
| 2026-04-27 02:35 | 23.14342 | -109.71771 | 387 ft | 19 kts | 174° |
| 2026-04-27 02:35 | 23.14209 | -109.71756 | 387 ft | 20 kts | 174° |
| 2026-04-27 02:35 | 23.14088 | -109.71742 | 387 ft | 13 kts | 174° |
| 2026-04-27 02:35 | 23.14010 | -109.71733 | 387 ft | 11 kts | 174° |
| 2026-04-27 02:36 | 23.13929 | -109.71724 | 387 ft | 12 kts | 175° |
| 2026-04-27 02:36 | 23.13886 | -109.71784 | 387 ft | 10 kts | 263° |
| 2026-04-27 02:36 | 23.13881 | -109.71850 | 389 ft | 7 kts | 264° |
| 2026-04-27 02:36 | 23.13877 | -109.71896 | 389 ft | 5 kts | 264° |
| 2026-04-27 02:37 | 23.13889 | -109.71922 | 388 ft | 3 kts | 342° |
| 2026-04-27 02:37 | 23.13892 | -109.71921 | 388 ft | 0 kts | 358° |
| 2026-04-27 02:37 | 23.13968 | -109.71930 | 388 ft | 37 kts | 353° |
| 2026-04-27 02:37 | 23.14486 | -109.71991 | 388 ft | 109 kts | 353° |
| 2026-04-27 02:38 | 23.15438 | -109.72099 | 391 ft | 164 kts | 354° |
| 2026-04-27 02:38 | 23.16567 | -109.72225 | 1034 ft | 153 kts | 353° |
| 2026-04-27 02:38 | 23.17551 | -109.72368 | 1747 ft | 138 kts | 352° |
| 2026-04-27 02:38 | 23.18500 | -109.72486 | 2191 ft | 139 kts | 355° |
| 2026-04-27 02:39 | 23.19536 | -109.72595 | 2353 ft | 160 kts | 354° |
| 2026-04-27 02:39 | 23.20729 | -109.72724 | 2471 ft | 185 kts | 354° |
| 2026-04-27 02:39 | 23.22152 | -109.72858 | 2465 ft | 220 kts | 360° |
| 2026-04-27 02:39 | 23.23730 | -109.72617 | 2719 ft | 244 kts | 17° |
| 2026-04-27 02:40 | 23.25322 | -109.71786 | 3171 ft | 262 kts | 34° |
| 2026-04-27 02:40 | 23.26667 | -109.70401 | 3890 ft | 269 kts | 52° |
| 2026-04-27 02:40 | 23.27558 | -109.68604 | 4629 ft | 274 kts | 71° |
| 2026-04-27 02:40 | 23.27865 | -109.66547 | 5343 ft | 278 kts | 90° |
| 2026-04-27 02:41 | 23.27870 | -109.64449 | 5837 ft | 283 kts | 90° |
| 2026-04-27 02:41 | 23.27883 | -109.62300 | 5980 ft | 284 kts | 90° |
| 2026-04-27 02:41 | 23.27901 | -109.60144 | 6596 ft | 286 kts | 90° |
| 2026-04-27 02:41 | 23.27924 | -109.57970 | 7308 ft | 288 kts | 90° |
| 2026-04-27 02:42 | 23.27949 | -109.55771 | 8004 ft | 292 kts | 90° |
| 2026-04-27 02:42 | 23.27972 | -109.53551 | 8707 ft | 295 kts | 90° |
| 2026-04-27 02:42 | 23.27993 | -109.51333 | 9391 ft | 298 kts | 90° |
| 2026-04-27 02:42 | 23.28014 | -109.49061 | 10046 ft | 302 kts | 90° |
| 2026-04-27 02:43 | 23.28038 | -109.46717 | 10315 ft | 321 kts | 90° |
| 2026-04-27 02:43 | 23.28078 | -109.44195 | 10438 ft | 343 kts | 90° |
| 2026-04-27 02:43 | 23.28131 | -109.41535 | 10756 ft | 356 kts | 89° |
| 2026-04-27 02:43 | 23.28189 | -109.38816 | 11300 ft | 361 kts | 89° |
| 2026-04-27 02:44 | 23.28245 | -109.36068 | 11885 ft | 365 kts | 91° |
| 2026-04-27 02:44 | 23.27969 | -109.33351 | 12458 ft | 368 kts | 105° |
| 2026-04-27 02:44 | 23.27037 | -109.30762 | 13049 ft | 369 kts | 121° |
| 2026-04-27 02:44 | 23.25507 | -109.28526 | 13623 ft | 370 kts | 136° |
| 2026-04-27 02:45 | 23.23488 | -109.26798 | 14154 ft | 371 kts | 152° |
| 2026-04-27 02:45 | 23.21173 | -109.25532 | 14697 ft | 372 kts | 156° |
| 2026-04-27 02:45 | 23.18833 | -109.24302 | 15226 ft | 375 kts | 156° |
| 2026-04-27 02:45 | 23.16475 | -109.23061 | 15759 ft | 378 kts | 156° |
| 2026-04-27 02:46 | 23.14124 | -109.21821 | 16295 ft | 381 kts | 156° |
| 2026-04-27 02:46 | 23.11734 | -109.20557 | 16834 ft | 383 kts | 156° |
| 2026-04-27 02:46 | 23.09318 | -109.19279 | 17365 ft | 386 kts | 156° |
| 2026-04-27 02:46 | 23.06922 | -109.18011 | 17894 ft | 389 kts | 156° |
| 2026-04-27 02:47 | 23.04483 | -109.16718 | 18386 ft | 392 kts | 156° |
| 2026-04-27 02:47 | 23.02012 | -109.15401 | 18837 ft | 395 kts | 156° |
| 2026-04-27 02:47 | 22.99538 | -109.14078 | 19286 ft | 398 kts | 156° |
| 2026-04-27 02:47 | 22.97044 | -109.12743 | 19749 ft | 401 kts | 156° |
| 2026-04-27 02:48 | 22.94536 | -109.11401 | 20194 ft | 404 kts | 157° |
| 2026-04-27 02:48 | 22.92006 | -109.10053 | 20641 ft | 407 kts | 157° |
| 2026-04-27 02:48 | 22.89482 | -109.08708 | 21084 ft | 410 kts | 157° |
| 2026-04-27 02:48 | 22.86913 | -109.07340 | 21514 ft | 413 kts | 157° |
| 2026-04-27 02:49 | 22.84318 | -109.05956 | 21941 ft | 415 kts | 157° |
| 2026-04-27 02:49 | 22.81743 | -109.04584 | 22341 ft | 418 kts | 158° |
| 2026-04-27 02:49 | 22.79121 | -109.03190 | 22759 ft | 421 kts | 158° |
| 2026-04-27 02:49 | 22.76485 | -109.01790 | 23150 ft | 424 kts | 158° |
| 2026-04-27 02:50 | 22.73816 | -109.00357 | 23529 ft | 428 kts | 155° |
| 2026-04-27 02:50 | 22.71303 | -108.98585 | 23843 ft | 436 kts | 145° |
| 2026-04-27 02:50 | 22.68945 | -108.96468 | 24155 ft | 439 kts | 144° |
| 2026-04-27 02:50 | 22.66591 | -108.94345 | 24458 ft | 442 kts | 144° |
| 2026-04-27 02:51 | 22.64223 | -108.92212 | 24760 ft | 444 kts | 144° |
| 2026-04-27 02:51 | 22.61868 | -108.90094 | 25049 ft | 447 kts | 144° |
| 2026-04-27 02:51 | 22.59463 | -108.87935 | 25343 ft | 449 kts | 144° |
| 2026-04-27 02:51 | 22.57050 | -108.85774 | 25630 ft | 452 kts | 144° |
| 2026-04-27 02:52 | 22.54619 | -108.83601 | 25918 ft | 454 kts | 144° |
| 2026-04-27 02:52 | 22.52175 | -108.81415 | 26207 ft | 456 kts | 144° |
| 2026-04-27 02:52 | 22.49716 | -108.79214 | 26485 ft | 459 kts | 144° |
| 2026-04-27 02:52 | 22.47253 | -108.77008 | 26763 ft | 461 kts | 144° |
| 2026-04-27 02:53 | 22.44778 | -108.74792 | 27039 ft | 463 kts | 144° |
| 2026-04-27 02:53 | 22.42317 | -108.72592 | 27302 ft | 466 kts | 144° |
| 2026-04-27 02:53 | 22.39795 | -108.70337 | 27571 ft | 468 kts | 144° |
| 2026-04-27 02:53 | 22.37281 | -108.68079 | 27842 ft | 471 kts | 143° |
| 2026-04-27 02:54 | 22.34964 | -108.65547 | 28092 ft | 479 kts | 134° |
| 2026-04-27 02:54 | 22.32851 | -108.62740 | 28333 ft | 482 kts | 133° |
| 2026-04-27 02:54 | 22.30762 | -108.59959 | 28579 ft | 484 kts | 133° |
| 2026-04-27 02:54 | 22.28627 | -108.57126 | 28821 ft | 486 kts | 133° |
| 2026-04-27 02:55 | 22.26476 | -108.54282 | 29045 ft | 488 kts | 133° |
| 2026-04-27 02:55 | 22.24345 | -108.51471 | 29271 ft | 490 kts | 133° |
| 2026-04-27 02:55 | 22.22174 | -108.48612 | 29496 ft | 492 kts | 133° |
| 2026-04-27 02:55 | 22.20004 | -108.45758 | 29712 ft | 494 kts | 133° |
| 2026-04-27 02:56 | 22.17819 | -108.42879 | 29938 ft | 495 kts | 133° |
| 2026-04-27 02:56 | 22.15627 | -108.39984 | 30111 ft | 497 kts | 133° |
| 2026-04-27 02:56 | 22.13460 | -108.37123 | 30295 ft | 498 kts | 133° |
| 2026-04-27 02:56 | 22.11266 | -108.34226 | 30553 ft | 497 kts | 133° |
| 2026-04-27 02:57 | 22.09076 | -108.31338 | 30818 ft | 496 kts | 133° |
| 2026-04-27 02:57 | 22.06884 | -108.28452 | 31079 ft | 496 kts | 133° |
| 2026-04-27 02:57 | 22.04705 | -108.25587 | 31343 ft | 495 kts | 133° |
| 2026-04-27 02:57 | 22.02521 | -108.22715 | 31603 ft | 494 kts | 133° |
| 2026-04-27 02:58 | 22.00338 | -108.19845 | 31862 ft | 493 kts | 133° |
| 2026-04-27 02:58 | 21.98188 | -108.17023 | 32125 ft | 493 kts | 134° |
| 2026-04-27 02:58 | 21.96005 | -108.14165 | 32387 ft | 492 kts | 134° |
| 2026-04-27 02:58 | 21.93824 | -108.11315 | 32662 ft | 491 kts | 134° |
| 2026-04-27 02:59 | 21.91655 | -108.08477 | 32931 ft | 490 kts | 134° |
| 2026-04-27 02:59 | 21.89518 | -108.05679 | 33180 ft | 489 kts | 134° |
| 2026-04-27 02:59 | 21.87355 | -108.02840 | 33450 ft | 489 kts | 134° |
| 2026-04-27 02:59 | 21.85200 | -108.00008 | 33717 ft | 488 kts | 134° |
| 2026-04-27 03:00 | 21.83045 | -107.97181 | 33968 ft | 487 kts | 134° |
| 2026-04-27 03:00 | 21.80892 | -107.94364 | 34192 ft | 487 kts | 134° |
| 2026-04-27 03:00 | 21.78746 | -107.91562 | 34395 ft | 487 kts | 134° |
| 2026-04-27 03:00 | 21.76609 | -107.88775 | 34586 ft | 487 kts | 134° |
| 2026-04-27 03:01 | 21.74432 | -107.85936 | 34776 ft | 487 kts | 134° |
| 2026-04-27 03:01 | 21.72302 | -107.83158 | 34957 ft | 487 kts | 134° |
| 2026-04-27 03:01 | 21.70135 | -107.80335 | 35134 ft | 487 kts | 134° |
| 2026-04-27 03:01 | 21.67982 | -107.77525 | 35304 ft | 488 kts | 134° |
| 2026-04-27 03:02 | 21.65827 | -107.74706 | 35478 ft | 488 kts | 134° |
| 2026-04-27 03:02 | 21.63671 | -107.71890 | 35637 ft | 488 kts | 134° |
| 2026-04-27 03:02 | 21.61505 | -107.69070 | 35797 ft | 488 kts | 134° |
| 2026-04-27 03:02 | 21.59346 | -107.66267 | 35964 ft | 488 kts | 134° |
| 2026-04-27 03:03 | 21.57174 | -107.63450 | 36109 ft | 488 kts | 134° |
| 2026-04-27 03:03 | 21.52865 | -107.57868 | 36404 ft | 488 kts | 134° |
| 2026-04-27 03:03 | 21.50704 | -107.55067 | 36541 ft | 488 kts | 134° |
| 2026-04-27 03:04 | 21.48540 | -107.52258 | 36683 ft | 488 kts | 134° |
| 2026-04-27 03:04 | 21.46373 | -107.49442 | 36839 ft | 488 kts | 134° |
| 2026-04-27 03:04 | 21.44209 | -107.46632 | 36923 ft | 489 kts | 134° |
| 2026-04-27 03:05 | 21.39851 | -107.40992 | 36932 ft | 489 kts | 134° |
| 2026-04-27 03:05 | 21.35521 | -107.35391 | 36930 ft | 489 kts | 134° |
| 2026-04-27 03:06 | 21.31194 | -107.29790 | 36931 ft | 489 kts | 134° |
| 2026-04-27 03:06 | 21.26835 | -107.24164 | 36933 ft | 489 kts | 134° |
| 2026-04-27 03:07 | 21.22482 | -107.18561 | 36933 ft | 489 kts | 134° |
| 2026-04-27 03:07 | 21.18145 | -107.12973 | 36935 ft | 489 kts | 134° |
| 2026-04-27 03:08 | 21.13793 | -107.07363 | 36936 ft | 489 kts | 134° |
| 2026-04-27 03:08 | 21.09446 | -107.01768 | 36936 ft | 488 kts | 134° |
| 2026-04-27 03:09 | 21.05117 | -106.96210 | 36939 ft | 488 kts | 134° |
| 2026-04-27 03:09 | 21.00754 | -106.90617 | 36943 ft | 488 kts | 134° |
| 2026-04-27 03:10 | 20.96420 | -106.85064 | 36941 ft | 488 kts | 134° |
| 2026-04-27 03:10 | 20.92055 | -106.79474 | 36945 ft | 488 kts | 134° |
| 2026-04-27 03:11 | 20.87714 | -106.73918 | 36951 ft | 488 kts | 134° |
| 2026-04-27 03:11 | 20.83344 | -106.68344 | 36948 ft | 489 kts | 134° |
| 2026-04-27 03:12 | 20.78954 | -106.62729 | 36931 ft | 494 kts | 134° |
| 2026-04-27 03:12 | 20.74510 | -106.57057 | 36931 ft | 498 kts | 134° |
| 2026-04-27 03:13 | 20.70058 | -106.51384 | 36932 ft | 501 kts | 134° |
| 2026-04-27 03:13 | 20.65572 | -106.45671 | 36931 ft | 503 kts | 134° |
| 2026-04-27 03:14 | 20.61079 | -106.39963 | 36931 ft | 504 kts | 133° |
| 2026-04-27 03:14 | 20.56553 | -106.34214 | 36929 ft | 505 kts | 133° |
| 2026-04-27 03:15 | 20.52010 | -106.28463 | 36915 ft | 506 kts | 133° |
| 2026-04-27 03:15 | 20.47498 | -106.22728 | 36911 ft | 507 kts | 133° |
| 2026-04-27 03:16 | 20.42961 | -106.16974 | 36908 ft | 507 kts | 133° |
| 2026-04-27 03:16 | 20.38404 | -106.11220 | 36906 ft | 507 kts | 133° |
| 2026-04-27 03:17 | 20.33878 | -106.05513 | 36907 ft | 507 kts | 133° |
| 2026-04-27 03:17 | 20.29324 | -105.99756 | 36909 ft | 507 kts | 133° |
| 2026-04-27 03:18 | 20.24768 | -105.93992 | 36910 ft | 507 kts | 133° |
| 2026-04-27 03:18 | 20.20238 | -105.88278 | 36909 ft | 507 kts | 133° |
| 2026-04-27 03:19 | 20.15666 | -105.82531 | 36906 ft | 507 kts | 133° |
| 2026-04-27 03:19 | 20.11092 | -105.76788 | 36911 ft | 508 kts | 133° |
| 2026-04-27 03:20 | 20.06553 | -105.71084 | 36909 ft | 508 kts | 133° |
| 2026-04-27 03:20 | 20.01980 | -105.65337 | 36909 ft | 508 kts | 133° |
| 2026-04-27 03:21 | 19.97428 | -105.59627 | 36912 ft | 508 kts | 133° |
| 2026-04-27 03:21 | 19.92852 | -105.53891 | 36912 ft | 508 kts | 133° |
| 2026-04-27 03:22 | 19.89053 | -105.49130 | 36909 ft | 508 kts | 133° |
| 2026-04-27 03:22 | 19.84462 | -105.43393 | 36911 ft | 508 kts | 133° |
| 2026-04-27 03:23 | 19.79867 | -105.37646 | 36910 ft | 509 kts | 133° |
| 2026-04-27 03:23 | 19.75301 | -105.31953 | 36914 ft | 509 kts | 133° |
| 2026-04-27 03:24 | 19.70696 | -105.26216 | 36912 ft | 509 kts | 133° |
| 2026-04-27 03:24 | 19.66117 | -105.20511 | 36912 ft | 509 kts | 133° |
| 2026-04-27 03:25 | 19.61514 | -105.14795 | 36918 ft | 509 kts | 133° |
| 2026-04-27 03:25 | 19.56937 | -105.09107 | 36928 ft | 509 kts | 133° |
| 2026-04-27 03:26 | 19.52340 | -105.03400 | 36925 ft | 509 kts | 133° |
| 2026-04-27 03:26 | 19.47720 | -104.97671 | 36930 ft | 509 kts | 133° |
| 2026-04-27 03:27 | 19.43130 | -104.91987 | 36927 ft | 509 kts | 133° |
| 2026-04-27 03:27 | 19.38538 | -104.86294 | 36923 ft | 510 kts | 133° |
| 2026-04-27 03:28 | 19.33953 | -104.80612 | 36921 ft | 510 kts | 132° |
| 2026-04-27 03:28 | 19.29333 | -104.74905 | 36923 ft | 510 kts | 133° |
| 2026-04-27 03:29 | 19.24731 | -104.69230 | 36925 ft | 510 kts | 132° |
| 2026-04-27 03:29 | 19.20114 | -104.63521 | 36922 ft | 510 kts | 132° |
| 2026-04-27 03:30 | 19.15554 | -104.57775 | 36909 ft | 511 kts | 127° |
| 2026-04-27 03:30 | 19.12049 | -104.51211 | 36916 ft | 512 kts | 118° |
| 2026-04-27 03:31 | 19.08790 | -104.44514 | 36918 ft | 512 kts | 118° |
| 2026-04-27 03:31 | 19.05535 | -104.37842 | 36919 ft | 513 kts | 118° |
| 2026-04-27 03:32 | 19.02261 | -104.31139 | 36919 ft | 513 kts | 118° |
| 2026-04-27 03:32 | 18.99003 | -104.24471 | 36919 ft | 513 kts | 118° |
| 2026-04-27 03:33 | 18.95716 | -104.17771 | 36919 ft | 513 kts | 118° |
| 2026-04-27 03:33 | 18.92416 | -104.11061 | 36921 ft | 513 kts | 118° |
| 2026-04-27 03:34 | 18.89143 | -104.04391 | 36917 ft | 513 kts | 118° |
| 2026-04-27 03:34 | 18.85852 | -103.97676 | 36922 ft | 514 kts | 118° |
| 2026-04-27 03:35 | 18.82581 | -103.91024 | 36926 ft | 514 kts | 118° |
| 2026-04-27 03:35 | 18.79279 | -103.84328 | 36927 ft | 514 kts | 118° |
| 2026-04-27 03:36 | 18.75972 | -103.77622 | 36928 ft | 514 kts | 118° |
| 2026-04-27 03:36 | 18.72668 | -103.70932 | 36939 ft | 514 kts | 118° |
| 2026-04-27 03:37 | 18.69376 | -103.64271 | 36939 ft | 514 kts | 118° |
| 2026-04-27 03:37 | 18.66058 | -103.57574 | 36947 ft | 515 kts | 117° |
| 2026-04-27 03:38 | 18.62759 | -103.50916 | 36947 ft | 514 kts | 117° |
| 2026-04-27 03:38 | 18.59439 | -103.44218 | 36953 ft | 514 kts | 117° |
| 2026-04-27 03:39 | 18.56127 | -103.37566 | 36954 ft | 515 kts | 117° |
| 2026-04-27 03:39 | 18.52798 | -103.30865 | 36966 ft | 515 kts | 117° |
| 2026-04-27 03:40 | 18.49490 | -103.24204 | 36970 ft | 516 kts | 117° |
| 2026-04-27 03:40 | 18.46144 | -103.17477 | 36974 ft | 516 kts | 117° |
| 2026-04-27 03:41 | 18.42805 | -103.10785 | 36968 ft | 516 kts | 117° |
| 2026-04-27 03:41 | 18.39476 | -103.04128 | 36968 ft | 516 kts | 117° |
| 2026-04-27 03:42 | 18.36133 | -102.97452 | 36966 ft | 514 kts | 117° |
| 2026-04-27 03:42 | 18.32804 | -102.90805 | 36937 ft | 513 kts | 117° |
| 2026-04-27 03:42 | 18.31174 | -102.87548 | 36947 ft | 501 kts | 117° |
| 2026-04-27 03:43 | 18.29562 | -102.84326 | 36944 ft | 495 kts | 117° |
| 2026-04-27 03:43 | 18.26364 | -102.77942 | 36946 ft | 492 kts | 117° |
| 2026-04-27 03:44 | 18.23164 | -102.71567 | 36952 ft | 491 kts | 117° |
| 2026-04-27 03:44 | 18.19983 | -102.65241 | 36949 ft | 490 kts | 117° |
| 2026-04-27 03:45 | 18.16785 | -102.58898 | 36945 ft | 490 kts | 117° |
| 2026-04-27 03:45 | 18.13598 | -102.52566 | 36942 ft | 490 kts | 117° |
| 2026-04-27 03:46 | 18.10423 | -102.46251 | 36939 ft | 490 kts | 117° |
| 2026-04-27 03:46 | 18.07223 | -102.39927 | 36944 ft | 490 kts | 117° |
| 2026-04-27 03:47 | 18.04023 | -102.33604 | 36942 ft | 490 kts | 117° |
| 2026-04-27 03:47 | 18.00848 | -102.27304 | 36943 ft | 490 kts | 117° |
| 2026-04-27 03:48 | 17.97639 | -102.20957 | 36935 ft | 490 kts | 117° |
| 2026-04-27 03:48 | 17.94456 | -102.14676 | 36939 ft | 490 kts | 117° |
| 2026-04-27 03:49 | 17.91246 | -102.08340 | 36929 ft | 489 kts | 117° |
| 2026-04-27 03:49 | 17.88044 | -102.02031 | 36940 ft | 489 kts | 117° |
| 2026-04-27 03:50 | 17.84854 | -101.95773 | 36936 ft | 489 kts | 117° |
| 2026-04-27 03:50 | 17.81645 | -101.89473 | 36940 ft | 488 kts | 117° |
| 2026-04-27 03:51 | 17.78443 | -101.83177 | 36941 ft | 488 kts | 117° |
| 2026-04-27 03:51 | 17.75264 | -101.76925 | 36941 ft | 488 kts | 117° |
| 2026-04-27 03:52 | 17.72068 | -101.70654 | 36942 ft | 487 kts | 117° |
| 2026-04-27 03:52 | 17.68861 | -101.64376 | 36941 ft | 487 kts | 117° |
| 2026-04-27 03:53 | 17.65652 | -101.58114 | 36939 ft | 487 kts | 117° |
| 2026-04-27 03:53 | 17.62443 | -101.51847 | 36937 ft | 486 kts | 117° |
| 2026-04-27 03:54 | 17.59975 | -101.45357 | 36934 ft | 482 kts | 101° |
| 2026-04-27 03:54 | 17.58799 | -101.38445 | 36932 ft | 481 kts | 97° |
| 2026-04-27 03:55 | 17.57641 | -101.31532 | 36938 ft | 481 kts | 98° |
| 2026-04-27 03:55 | 17.56483 | -101.24686 | 36808 ft | 477 kts | 97° |
| 2026-04-27 03:55 | 17.55902 | -101.21232 | 36351 ft | 471 kts | 97° |
| 2026-04-27 03:56 | 17.55344 | -101.17913 | 35897 ft | 467 kts | 97° |
| 2026-04-27 03:56 | 17.54782 | -101.14571 | 35439 ft | 463 kts | 97° |
| 2026-04-27 03:56 | 17.54225 | -101.11254 | 34997 ft | 459 kts | 98° |
| 2026-04-27 03:56 | 17.53673 | -101.07966 | 34548 ft | 455 kts | 97° |
| 2026-04-27 03:57 | 17.53126 | -101.04704 | 34104 ft | 452 kts | 97° |
| 2026-04-27 03:57 | 17.52581 | -101.01456 | 33265 ft | 458 kts | 98° |
| 2026-04-27 03:57 | 17.52027 | -100.98165 | 32687 ft | 471 kts | 98° |
| 2026-04-27 03:57 | 17.51448 | -100.94730 | 32236 ft | 484 kts | 98° |
| 2026-04-27 03:58 | 17.50857 | -100.91233 | 31800 ft | 487 kts | 98° |
| 2026-04-27 03:58 | 17.50265 | -100.87752 | 31368 ft | 485 kts | 98° |
| 2026-04-27 03:58 | 17.49670 | -100.84254 | 30948 ft | 491 kts | 98° |
| 2026-04-27 03:58 | 17.49070 | -100.80730 | 30536 ft | 493 kts | 99° |
| 2026-04-27 03:59 | 17.48469 | -100.77198 | 30121 ft | 490 kts | 99° |
| 2026-04-27 03:59 | 17.47876 | -100.73732 | 29652 ft | 487 kts | 99° |
| 2026-04-27 03:59 | 17.47276 | -100.70239 | 29186 ft | 483 kts | 99° |
| 2026-04-27 03:59 | 17.46687 | -100.66796 | 28717 ft | 479 kts | 99° |
| 2026-04-27 04:00 | 17.46104 | -100.63368 | 28245 ft | 474 kts | 99° |
| 2026-04-27 04:00 | 17.45530 | -100.59985 | 27800 ft | 470 kts | 99° |
| 2026-04-27 04:00 | 17.44964 | -100.56658 | 27361 ft | 467 kts | 99° |
| 2026-04-27 04:00 | 17.44395 | -100.53316 | 26919 ft | 463 kts | 99° |
| 2026-04-27 04:01 | 17.43832 | -100.50005 | 26484 ft | 458 kts | 99° |
| 2026-04-27 04:01 | 17.43279 | -100.46756 | 26054 ft | 449 kts | 99° |
| 2026-04-27 04:01 | 17.42732 | -100.43569 | 25639 ft | 441 kts | 99° |
| 2026-04-27 04:01 | 17.42190 | -100.40430 | 25226 ft | 433 kts | 99° |
| 2026-04-27 04:02 | 17.41660 | -100.37346 | 24819 ft | 426 kts | 99° |
| 2026-04-27 04:02 | 17.41090 | -100.34367 | 24411 ft | 416 kts | 104° |
| 2026-04-27 04:02 | 17.40218 | -100.31504 | 24067 ft | 410 kts | 111° |
| 2026-04-27 04:02 | 17.39038 | -100.28779 | 23849 ft | 409 kts | 117° |
| 2026-04-27 04:03 | 17.37585 | -100.26224 | 23629 ft | 406 kts | 124° |
| 2026-04-27 04:03 | 17.36000 | -100.23829 | 23372 ft | 405 kts | 124° |
| 2026-04-27 04:03 | 17.34396 | -100.21395 | 23130 ft | 402 kts | 124° |
| 2026-04-27 04:03 | 17.32814 | -100.18988 | 22867 ft | 401 kts | 124° |
| 2026-04-27 04:04 | 17.31230 | -100.16579 | 22606 ft | 399 kts | 124° |
| 2026-04-27 04:04 | 17.29664 | -100.14200 | 22240 ft | 395 kts | 124° |
| 2026-04-27 04:04 | 17.28110 | -100.11843 | 21791 ft | 392 kts | 124° |
| 2026-04-27 04:04 | 17.26565 | -100.09505 | 21306 ft | 386 kts | 124° |
| 2026-04-27 04:05 | 17.25064 | -100.07233 | 20678 ft | 385 kts | 124° |
| 2026-04-27 04:05 | 17.23550 | -100.04941 | 20233 ft | 381 kts | 124° |
| 2026-04-27 04:05 | 17.22039 | -100.02653 | 19802 ft | 378 kts | 124° |
| 2026-04-27 04:05 | 17.20548 | -100.00392 | 19366 ft | 376 kts | 124° |
| 2026-04-27 04:06 | 17.19084 | -99.98174 | 18936 ft | 373 kts | 124° |
| 2026-04-27 04:06 | 17.17608 | -99.95943 | 18524 ft | 371 kts | 124° |
| 2026-04-27 04:06 | 17.16141 | -99.93726 | 18097 ft | 369 kts | 124° |
| 2026-04-27 04:07 | 17.13235 | -99.89338 | 17188 ft | 363 kts | 124° |
| 2026-04-27 04:07 | 17.11846 | -99.87240 | 16778 ft | 361 kts | 124° |
| 2026-04-27 04:07 | 17.10422 | -99.85092 | 16368 ft | 358 kts | 124° |
| 2026-04-27 04:07 | 17.09006 | -99.82959 | 15954 ft | 355 kts | 124° |
| 2026-04-27 04:08 | 17.07602 | -99.80850 | 15550 ft | 352 kts | 124° |
| 2026-04-27 04:08 | 17.06208 | -99.78754 | 15155 ft | 349 kts | 124° |
| 2026-04-27 04:08 | 17.04829 | -99.76674 | 14762 ft | 347 kts | 124° |
| 2026-04-27 04:08 | 17.03472 | -99.74627 | 14374 ft | 344 kts | 123° |
| 2026-04-27 04:09 | 17.02113 | -99.72573 | 13990 ft | 342 kts | 123° |
| 2026-04-27 04:09 | 17.00763 | -99.70534 | 13580 ft | 339 kts | 123° |
| 2026-04-27 04:09 | 16.99420 | -99.68508 | 13135 ft | 337 kts | 123° |
| 2026-04-27 04:09 | 16.98102 | -99.66522 | 12688 ft | 336 kts | 123° |
| 2026-04-27 04:10 | 16.96769 | -99.64521 | 12234 ft | 334 kts | 124° |
| 2026-04-27 04:10 | 16.95439 | -99.62526 | 11779 ft | 333 kts | 124° |
| 2026-04-27 04:10 | 16.94116 | -99.60543 | 11326 ft | 331 kts | 124° |
| 2026-04-27 04:10 | 16.92818 | -99.58592 | 10878 ft | 330 kts | 124° |
| 2026-04-27 04:11 | 16.91510 | -99.56627 | 10444 ft | 329 kts | 124° |
| 2026-04-27 04:11 | 16.90201 | -99.54662 | 10014 ft | 328 kts | 124° |
| 2026-04-27 04:11 | 16.88919 | -99.52736 | 9858 ft | 317 kts | 124° |
| 2026-04-27 04:11 | 16.87686 | -99.50880 | 9739 ft | 305 kts | 124° |
| 2026-04-27 04:12 | 16.86501 | -99.49098 | 9456 ft | 294 kts | 124° |
| 2026-04-27 04:12 | 16.85336 | -99.47348 | 8986 ft | 290 kts | 124° |
| 2026-04-27 04:12 | 16.84203 | -99.45644 | 8479 ft | 288 kts | 124° |
| 2026-04-27 04:12 | 16.83074 | -99.43932 | 7909 ft | 284 kts | 124° |
| 2026-04-27 04:13 | 16.81960 | -99.42228 | 7280 ft | 282 kts | 124° |
| 2026-04-27 04:13 | 16.81233 | -99.41110 | 6864 ft | 281 kts | 124° |
| 2026-04-27 04:13 | 16.80142 | -99.39422 | 6238 ft | 278 kts | 124° |
| 2026-04-27 04:13 | 16.78722 | -99.37213 | 5420 ft | 273 kts | 124° |
| 2026-04-27 04:14 | 16.78019 | -99.36128 | 5013 ft | 271 kts | 124° |
| 2026-04-27 04:14 | 16.76774 | -99.34691 | 4381 ft | 267 kts | 145° |
| 2026-04-27 04:14 | 16.75055 | -99.34010 | 3723 ft | 265 kts | 174° |
| 2026-04-27 04:14 | 16.73217 | -99.34018 | 3175 ft | 263 kts | 183° |
| 2026-04-27 04:15 | 16.71360 | -99.34139 | 3028 ft | 268 kts | 184° |
| 2026-04-27 04:15 | 16.69494 | -99.34269 | 3013 ft | 268 kts | 186° |
| 2026-04-27 04:15 | 16.67747 | -99.34840 | 3011 ft | 267 kts | 212° |
| 2026-04-27 04:15 | 16.66330 | -99.36087 | 3014 ft | 267 kts | 230° |
| 2026-04-27 04:16 | 16.65357 | -99.37731 | 3012 ft | 266 kts | 249° |
| 2026-04-27 04:16 | 16.64939 | -99.39510 | 2998 ft | 239 kts | 266° |
| 2026-04-27 04:16 | 16.65010 | -99.41131 | 3007 ft | 218 kts | 281° |
| 2026-04-27 04:16 | 16.65429 | -99.42652 | 3010 ft | 217 kts | 289° |
| 2026-04-27 04:17 | 16.65897 | -99.44138 | 3007 ft | 211 kts | 288° |
| 2026-04-27 04:17 | 16.66344 | -99.45562 | 3043 ft | 199 kts | 288° |
| 2026-04-27 04:17 | 16.66756 | -99.46872 | 3010 ft | 181 kts | 288° |
| 2026-04-27 04:17 | 16.67127 | -99.48049 | 2991 ft | 169 kts | 289° |
| 2026-04-27 04:18 | 16.67512 | -99.49272 | 3008 ft | 182 kts | 288° |
| 2026-04-27 04:18 | 16.67907 | -99.50526 | 3013 ft | 184 kts | 288° |
| 2026-04-27 04:18 | 16.68306 | -99.51795 | 3010 ft | 184 kts | 288° |
| 2026-04-27 04:18 | 16.68706 | -99.53065 | 3038 ft | 184 kts | 289° |
| 2026-04-27 04:19 | 16.69105 | -99.54334 | 3014 ft | 184 kts | 288° |
| 2026-04-27 04:19 | 16.69499 | -99.55587 | 3013 ft | 184 kts | 288° |
| 2026-04-27 04:19 | 16.69878 | -99.56796 | 2996 ft | 163 kts | 288° |
| 2026-04-27 04:19 | 16.70220 | -99.57883 | 2906 ft | 153 kts | 288° |
| 2026-04-27 04:20 | 16.70546 | -99.58919 | 2751 ft | 148 kts | 288° |
| 2026-04-27 04:20 | 16.70865 | -99.59936 | 2587 ft | 145 kts | 288° |
| 2026-04-27 04:20 | 16.71178 | -99.60933 | 2404 ft | 144 kts | 288° |
| 2026-04-27 04:20 | 16.71489 | -99.61921 | 2218 ft | 143 kts | 288° |
| 2026-04-27 04:21 | 16.71791 | -99.62883 | 2047 ft | 140 kts | 288° |
| 2026-04-27 04:21 | 16.72094 | -99.63850 | 1864 ft | 137 kts | 288° |
| 2026-04-27 04:21 | 16.72386 | -99.64779 | 1688 ft | 136 kts | 288° |
| 2026-04-27 04:21 | 16.72680 | -99.65717 | 1514 ft | 135 kts | 288° |
| 2026-04-27 04:22 | 16.72973 | -99.66649 | 1327 ft | 136 kts | 289° |
| 2026-04-27 04:22 | 16.73266 | -99.67585 | 1157 ft | 135 kts | 289° |
| 2026-04-27 04:22 | 16.73557 | -99.68511 | 994 ft | 134 kts | 288° |
| 2026-04-27 04:22 | 16.73847 | -99.69436 | 822 ft | 134 kts | 287° |
| 2026-04-27 04:23 | 16.74139 | -99.70369 | 657 ft | 137 kts | 287° |
| 2026-04-27 04:23 | 16.74429 | -99.71313 | 467 ft | 136 kts | 287° |
| 2026-04-27 04:23 | 16.74732 | -99.72248 | 323 ft | 135 kts | 288° |
| 2026-04-27 04:23 | 16.75017 | -99.73171 | 105 ft | 132 kts | 288° |
| 2026-04-27 04:24 | 16.75295 | -99.74065 | 21 ft | 118 kts | 288° |
| 2026-04-27 04:24 | 16.75499 | -99.74706 | 21 ft | 68 kts | 288° |
| 2026-04-27 04:24 | 16.75586 | -99.74939 | 20 ft | 23 kts | 312° |
| 2026-04-27 04:24 | 16.75640 | -99.74996 | 20 ft | 7 kts | 315° |
| 2026-04-27 04:25 | 16.75673 | -99.75025 | 23 ft | 5 kts | 322° |
| 2026-04-27 04:25 | 16.75697 | -99.75041 | 20 ft | 3 kts | 328° |
| 2026-04-27 04:25 | 16.75730 | -99.75060 | 21 ft | 8 kts | 333° |
| 2026-04-27 04:25 | 16.75790 | -99.75090 | 21 ft | 11 kts | 335° |
| 2026-04-27 04:26 | 16.75838 | -99.75153 | 21 ft | 12 kts | 289° |
| 2026-04-27 04:26 | 16.75867 | -99.75246 | 21 ft | 14 kts | 289° |
| 2026-04-27 04:26 | 16.75899 | -99.75335 | 21 ft | 11 kts | 308° |
| 2026-04-27 04:26 | 16.75968 | -99.75365 | 21 ft | 11 kts | 330° |
| 2026-04-27 04:27 | 16.76001 | -99.75438 | 21 ft | 12 kts | 286° |
| 2026-04-27 04:27 | 16.76027 | -99.75523 | 22 ft | 11 kts | 287° |
| 2026-04-27 04:27 | 16.76055 | -99.75585 | 23 ft | 5 kts | 353° |
| 2026-04-27 04:27 | 16.76089 | -99.75577 | 21 ft | 5 kts | 13° |
| 2026-04-27 04:28 | 16.76116 | -99.75568 | 21 ft | 4 kts | 18° |
| 2026-04-27 04:28 | 16.76138 | -99.75561 | 21 ft | 3 kts | 17° |
| 2026-04-27 04:28 | 16.76139 | -99.75560 | 21 ft | 0 kts | 17° |